sensor_id;sensor_type;location;lat;lon;timestamp;P1;durP1;ratioP1;P2;durP2;ratioP2
20525;SDS011;10421;49.142;9.232;2022-07-29T00:01:30;7.10;;;5.20;;
20525;SDS011;10421;49.142;9.232;2022-07-29T00:03:56;5.40;;;4.90;;
20525;SDS011;10421;49.142;9.232;2022-07-29T00:06:24;6.27;;;5.20;;
20525;SDS011;10421;49.142;9.232;2022-07-29T00:08:51;6.87;;;5.23;;
20525;SDS011;10421;49.142;9.232;2022-07-29T00:11:18;8.63;;;5.37;;
20525;SDS011;10421;49.142;9.232;2022-07-29T00:13:45;5.63;;;5.03;;
20525;SDS011;10421;49.142;9.232;2022-07-29T00:16:12;5.00;;;4.60;;
20525;SDS011;10421;49.142;9.232;2022-07-29T00:18:38;6.13;;;5.10;;
20525;SDS011;10421;49.142;9.232;2022-07-29T00:21:05;6.80;;;4.67;;
20525;SDS011;10421;49.142;9.232;2022-07-29T00:23:33;6.43;;;5.50;;
20525;SDS011;10421;49.142;9.232;2022-07-29T00:26:00;6.40;;;4.90;;
20525;SDS011;10421;49.142;9.232;2022-07-29T00:28:27;5.47;;;4.97;;
20525;SDS011;10421;49.142;9.232;2022-07-29T00:30:54;5.37;;;4.87;;
20525;SDS011;10421;49.142;9.232;2022-07-29T00:33:20;6.93;;;5.00;;
20525;SDS011;10421;49.142;9.232;2022-07-29T00:35:48;7.63;;;5.00;;
20525;SDS011;10421;49.142;9.232;2022-07-29T00:38:15;5.60;;;4.87;;
20525;SDS011;10421;49.142;9.232;2022-07-29T00:40:45;5.10;;;4.60;;
20525;SDS011;10421;49.142;9.232;2022-07-29T00:43:13;5.50;;;5.00;;
20525;SDS011;10421;49.142;9.232;2022-07-29T00:45:40;5.30;;;4.80;;
20525;SDS011;10421;49.142;9.232;2022-07-29T00:48:07;6.47;;;5.37;;
20525;SDS011;10421;49.142;9.232;2022-07-29T00:50:34;5.80;;;4.87;;
20525;SDS011;10421;49.142;9.232;2022-07-29T00:53:02;6.77;;;5.23;;
20525;SDS011;10421;49.142;9.232;2022-07-29T00:55:29;8.40;;;4.90;;
20525;SDS011;10421;49.142;9.232;2022-07-29T00:57:59;5.50;;;4.90;;
20525;SDS011;10421;49.142;9.232;2022-07-29T01:00:27;7.60;;;5.10;;
20525;SDS011;10421;49.142;9.232;2022-07-29T01:02:54;5.30;;;4.80;;
20525;SDS011;10421;49.142;9.232;2022-07-29T01:05:22;6.63;;;5.17;;
20525;SDS011;10421;49.142;9.232;2022-07-29T01:07:52;6.13;;;4.93;;
20525;SDS011;10421;49.142;9.232;2022-07-29T01:10:20;5.93;;;5.33;;
20525;SDS011;10421;49.142;9.232;2022-07-29T01:12:49;7.07;;;5.13;;
20525;SDS011;10421;49.142;9.232;2022-07-29T01:15:19;5.80;;;5.20;;
20525;SDS011;10421;49.142;9.232;2022-07-29T01:17:49;5.27;;;4.77;;
20525;SDS011;10421;49.142;9.232;2022-07-29T01:20:24;6.30;;;5.70;;
20525;SDS011;10421;49.142;9.232;2022-07-29T01:28:59;6.30;;;5.60;;
20525;SDS011;10421;49.142;9.232;2022-07-29T01:31:33;5.60;;;5.10;;
20525;SDS011;10421;49.142;9.232;2022-07-29T01:34:08;8.00;;;5.60;;
20525;SDS011;10421;49.142;9.232;2022-07-29T01:36:40;5.57;;;5.07;;
20525;SDS011;10421;49.142;9.232;2022-07-29T01:39:11;5.57;;;5.00;;
20525;SDS011;10421;49.142;9.232;2022-07-29T01:41:43;5.97;;;4.83;;
20525;SDS011;10421;49.142;9.232;2022-07-29T01:44:18;7.23;;;5.63;;
20525;SDS011;10421;49.142;9.232;2022-07-29T01:46:50;5.50;;;5.00;;
20525;SDS011;10421;49.142;9.232;2022-07-29T01:49:24;6.10;;;4.93;;
20525;SDS011;10421;49.142;9.232;2022-07-29T01:51:54;6.10;;;5.00;;
20525;SDS011;10421;49.142;9.232;2022-07-29T01:54:26;5.40;;;4.90;;
20525;SDS011;10421;49.142;9.232;2022-07-29T01:56:56;6.33;;;5.20;;
20525;SDS011;10421;49.142;9.232;2022-07-29T01:59:27;7.50;;;5.10;;
20525;SDS011;10421;49.142;9.232;2022-07-29T02:01:57;6.50;;;5.30;;
20525;SDS011;10421;49.142;9.232;2022-07-29T02:04:24;6.73;;;5.60;;
20525;SDS011;10421;49.142;9.232;2022-07-29T02:06:54;7.10;;;5.43;;
20525;SDS011;10421;49.142;9.232;2022-07-29T02:09:24;5.30;;;4.80;;
20525;SDS011;10421;49.142;9.232;2022-07-29T02:11:53;5.23;;;4.73;;
20525;SDS011;10421;49.142;9.232;2022-07-29T02:14:22;5.97;;;5.20;;
20525;SDS011;10421;49.142;9.232;2022-07-29T02:16:52;5.60;;;5.10;;
20525;SDS011;10421;49.142;9.232;2022-07-29T02:19:22;6.13;;;5.50;;
20525;SDS011;10421;49.142;9.232;2022-07-29T02:21:52;6.20;;;5.30;;
20525;SDS011;10421;49.142;9.232;2022-07-29T02:24:20;5.73;;;5.23;;
20525;SDS011;10421;49.142;9.232;2022-07-29T02:26:49;8.60;;;4.97;;
20525;SDS011;10421;49.142;9.232;2022-07-29T02:29:17;6.50;;;5.30;;
20525;SDS011;10421;49.142;9.232;2022-07-29T02:31:47;6.23;;;5.30;;
20525;SDS011;10421;49.142;9.232;2022-07-29T02:34:16;5.70;;;5.10;;
20525;SDS011;10421;49.142;9.232;2022-07-29T02:36:45;6.30;;;4.63;;
20525;SDS011;10421;49.142;9.232;2022-07-29T02:39:13;5.97;;;4.70;;
20525;SDS011;10421;49.142;9.232;2022-07-29T02:41:42;5.67;;;5.20;;
20525;SDS011;10421;49.142;9.232;2022-07-29T02:44:11;6.40;;;5.80;;
20525;SDS011;10421;49.142;9.232;2022-07-29T02:46:41;5.73;;;4.57;;
20525;SDS011;10421;49.142;9.232;2022-07-29T02:49:15;8.70;;;5.67;;
20525;SDS011;10421;49.142;9.232;2022-07-29T02:51:45;5.57;;;5.07;;
20525;SDS011;10421;49.142;9.232;2022-07-29T02:54:20;6.33;;;4.80;;
20525;SDS011;10421;49.142;9.232;2022-07-29T02:56:53;6.80;;;4.90;;
20525;SDS011;10421;49.142;9.232;2022-07-29T02:59:22;7.00;;;4.97;;
20525;SDS011;10421;49.142;9.232;2022-07-29T03:01:53;5.20;;;4.70;;
20525;SDS011;10421;49.142;9.232;2022-07-29T03:04:22;6.10;;;5.23;;
20525;SDS011;10421;49.142;9.232;2022-07-29T03:06:51;5.50;;;4.63;;
20525;SDS011;10421;49.142;9.232;2022-07-29T03:09:19;7.30;;;5.40;;
20525;SDS011;10421;49.142;9.232;2022-07-29T03:11:47;6.73;;;4.87;;
20525;SDS011;10421;49.142;9.232;2022-07-29T03:14:14;5.70;;;5.10;;
20525;SDS011;10421;49.142;9.232;2022-07-29T03:16:43;5.33;;;4.93;;
20525;SDS011;10421;49.142;9.232;2022-07-29T03:19:11;5.67;;;4.73;;
20525;SDS011;10421;49.142;9.232;2022-07-29T03:21:39;5.43;;;4.87;;
20525;SDS011;10421;49.142;9.232;2022-07-29T03:24:06;5.57;;;4.63;;
20525;SDS011;10421;49.142;9.232;2022-07-29T03:26:32;5.10;;;4.20;;
20525;SDS011;10421;49.142;9.232;2022-07-29T03:28:59;5.30;;;4.80;;
20525;SDS011;10421;49.142;9.232;2022-07-29T03:31:26;7.30;;;5.03;;
20525;SDS011;10421;49.142;9.232;2022-07-29T03:33:52;5.50;;;4.90;;
20525;SDS011;10421;49.142;9.232;2022-07-29T03:36:19;6.27;;;5.10;;
20525;SDS011;10421;49.142;9.232;2022-07-29T03:38:47;6.13;;;4.73;;
20525;SDS011;10421;49.142;9.232;2022-07-29T03:41:15;5.27;;;4.87;;
20525;SDS011;10421;49.142;9.232;2022-07-29T03:43:44;5.80;;;5.20;;
20525;SDS011;10421;49.142;9.232;2022-07-29T03:46:13;5.90;;;5.10;;
20525;SDS011;10421;49.142;9.232;2022-07-29T03:48:42;4.80;;;4.40;;
20525;SDS011;10421;49.142;9.232;2022-07-29T03:51:14;8.97;;;4.77;;
20525;SDS011;10421;49.142;9.232;2022-07-29T03:53:41;9.20;;;5.30;;
20525;SDS011;10421;49.142;9.232;2022-07-29T03:56:09;6.30;;;5.70;;
20525;SDS011;10421;49.142;9.232;2022-07-29T03:58:41;6.37;;;5.60;;
20525;SDS011;10421;49.142;9.232;2022-07-29T04:01:09;9.03;;;5.90;;
20525;SDS011;10421;49.142;9.232;2022-07-29T04:03:37;6.00;;;5.13;;
20525;SDS011;10421;49.142;9.232;2022-07-29T04:06:05;7.87;;;5.40;;
20525;SDS011;10421;49.142;9.232;2022-07-29T04:08:32;6.03;;;5.00;;
20525;SDS011;10421;49.142;9.232;2022-07-29T04:11:00;5.80;;;5.20;;
20525;SDS011;10421;49.142;9.232;2022-07-29T04:13:28;5.30;;;4.80;;
20525;SDS011;10421;49.142;9.232;2022-07-29T04:15:55;5.53;;;4.97;;
20525;SDS011;10421;49.142;9.232;2022-07-29T04:18:22;5.80;;;5.30;;
20525;SDS011;10421;49.142;9.232;2022-07-29T04:20:49;5.50;;;5.00;;
20525;SDS011;10421;49.142;9.232;2022-07-29T04:23:17;5.80;;;5.20;;
20525;SDS011;10421;49.142;9.232;2022-07-29T04:25:43;5.43;;;4.93;;
20525;SDS011;10421;49.142;9.232;2022-07-29T04:28:10;5.47;;;4.87;;
20525;SDS011;10421;49.142;9.232;2022-07-29T04:30:38;6.20;;;5.40;;
20525;SDS011;10421;49.142;9.232;2022-07-29T04:33:06;5.50;;;4.93;;
20525;SDS011;10421;49.142;9.232;2022-07-29T04:35:34;5.93;;;4.67;;
20525;SDS011;10421;49.142;9.232;2022-07-29T04:38:02;6.20;;;5.63;;
20525;SDS011;10421;49.142;9.232;2022-07-29T04:40:29;5.57;;;5.07;;
20525;SDS011;10421;49.142;9.232;2022-07-29T04:42:58;5.13;;;4.73;;
20525;SDS011;10421;49.142;9.232;2022-07-29T04:45:25;6.10;;;5.10;;
20525;SDS011;10421;49.142;9.232;2022-07-29T04:47:53;5.57;;;4.87;;
20525;SDS011;10421;49.142;9.232;2022-07-29T04:50:19;5.23;;;4.73;;
20525;SDS011;10421;49.142;9.232;2022-07-29T04:52:46;6.30;;;5.33;;
20525;SDS011;10421;49.142;9.232;2022-07-29T04:55:13;5.93;;;5.20;;
20525;SDS011;10421;49.142;9.232;2022-07-29T04:57:39;9.00;;;5.70;;
20525;SDS011;10421;49.142;9.232;2022-07-29T05:00:07;5.40;;;4.90;;
20525;SDS011;10421;49.142;9.232;2022-07-29T05:02:34;6.27;;;5.00;;
20525;SDS011;10421;49.142;9.232;2022-07-29T05:05:03;8.07;;;5.80;;
20525;SDS011;10421;49.142;9.232;2022-07-29T05:07:30;5.50;;;5.00;;
20525;SDS011;10421;49.142;9.232;2022-07-29T05:09:57;5.20;;;4.70;;
20525;SDS011;10421;49.142;9.232;2022-07-29T05:12:23;5.87;;;5.27;;
20525;SDS011;10421;49.142;9.232;2022-07-29T05:14:50;6.20;;;5.20;;
20525;SDS011;10421;49.142;9.232;2022-07-29T05:17:17;7.57;;;5.13;;
20525;SDS011;10421;49.142;9.232;2022-07-29T05:19:44;5.87;;;5.27;;
20525;SDS011;10421;49.142;9.232;2022-07-29T05:22:12;6.47;;;5.30;;
20525;SDS011;10421;49.142;9.232;2022-07-29T05:24:39;5.80;;;5.20;;
20525;SDS011;10421;49.142;9.232;2022-07-29T05:27:05;5.30;;;4.80;;
20525;SDS011;10421;49.142;9.232;2022-07-29T05:29:32;5.63;;;4.87;;
20525;SDS011;10421;49.142;9.232;2022-07-29T05:31:59;5.23;;;4.80;;
20525;SDS011;10421;49.142;9.232;2022-07-29T05:34:26;5.27;;;4.83;;
20525;SDS011;10421;49.142;9.232;2022-07-29T05:36:53;6.07;;;5.53;;
20525;SDS011;10421;49.142;9.232;2022-07-29T05:39:21;5.57;;;5.07;;
20525;SDS011;10421;49.142;9.232;2022-07-29T05:41:48;8.47;;;6.27;;
20525;SDS011;10421;49.142;9.232;2022-07-29T05:44:15;6.87;;;5.23;;
20525;SDS011;10421;49.142;9.232;2022-07-29T05:46:42;5.97;;;5.30;;
20525;SDS011;10421;49.142;9.232;2022-07-29T05:49:09;5.43;;;4.93;;
20525;SDS011;10421;49.142;9.232;2022-07-29T05:51:35;6.17;;;5.57;;
20525;SDS011;10421;49.142;9.232;2022-07-29T05:54:02;7.83;;;5.70;;
20525;SDS011;10421;49.142;9.232;2022-07-29T05:56:31;5.97;;;5.37;;
20525;SDS011;10421;49.142;9.232;2022-07-29T05:58:58;6.20;;;4.70;;
20525;SDS011;10421;49.142;9.232;2022-07-29T06:01:25;5.93;;;5.33;;
20525;SDS011;10421;49.142;9.232;2022-07-29T06:03:52;6.60;;;5.90;;
20525;SDS011;10421;49.142;9.232;2022-07-29T06:06:18;6.90;;;6.20;;
20525;SDS011;10421;49.142;9.232;2022-07-29T06:08:45;7.83;;;6.20;;
20525;SDS011;10421;49.142;9.232;2022-07-29T06:11:12;8.27;;;5.97;;
20525;SDS011;10421;49.142;9.232;2022-07-29T06:13:40;9.73;;;7.17;;
20525;SDS011;10421;49.142;9.232;2022-07-29T06:16:06;7.83;;;5.90;;
20525;SDS011;10421;49.142;9.232;2022-07-29T06:18:33;9.67;;;7.00;;
20525;SDS011;10421;49.142;9.232;2022-07-29T06:21:00;12.40;;;6.37;;
20525;SDS011;10421;49.142;9.232;2022-07-29T06:23:27;9.00;;;6.30;;
20525;SDS011;10421;49.142;9.232;2022-07-29T06:25:53;7.57;;;6.77;;
20525;SDS011;10421;49.142;9.232;2022-07-29T06:28:20;7.30;;;5.80;;
20525;SDS011;10421;49.142;9.232;2022-07-29T06:30:48;10.13;;;6.10;;
20525;SDS011;10421;49.142;9.232;2022-07-29T06:33:18;6.70;;;6.00;;
20525;SDS011;10421;49.142;9.232;2022-07-29T06:35:45;12.93;;;6.13;;
20525;SDS011;10421;49.142;9.232;2022-07-29T06:38:12;9.90;;;6.37;;
20525;SDS011;10421;49.142;9.232;2022-07-29T06:40:40;12.53;;;7.30;;
20525;SDS011;10421;49.142;9.232;2022-07-29T06:43:26;10.70;;;7.00;;
20525;SDS011;10421;49.142;9.232;2022-07-29T06:45:54;7.70;;;6.30;;
20525;SDS011;10421;49.142;9.232;2022-07-29T06:48:21;8.53;;;6.47;;
20525;SDS011;10421;49.142;9.232;2022-07-29T06:50:47;8.57;;;5.87;;
20525;SDS011;10421;49.142;9.232;2022-07-29T06:53:14;8.90;;;6.13;;
20525;SDS011;10421;49.142;9.232;2022-07-29T06:55:41;6.70;;;6.10;;
20525;SDS011;10421;49.142;9.232;2022-07-29T06:58:08;6.70;;;5.23;;
20525;SDS011;10421;49.142;9.232;2022-07-29T07:00:35;8.17;;;4.63;;
20525;SDS011;10421;49.142;9.232;2022-07-29T07:03:03;5.90;;;4.87;;
20525;SDS011;10421;49.142;9.232;2022-07-29T07:05:30;5.63;;;5.03;;
20525;SDS011;10421;49.142;9.232;2022-07-29T07:07:57;4.67;;;4.30;;
20525;SDS011;10421;49.142;9.232;2022-07-29T07:10:23;4.50;;;4.10;;
20525;SDS011;10421;49.142;9.232;2022-07-29T07:12:50;4.87;;;4.37;;
20525;SDS011;10421;49.142;9.232;2022-07-29T07:15:17;5.40;;;4.90;;
20525;SDS011;10421;49.142;9.232;2022-07-29T07:17:46;7.10;;;4.60;;
20525;SDS011;10421;49.142;9.232;2022-07-29T07:20:15;4.80;;;4.30;;
20525;SDS011;10421;49.142;9.232;2022-07-29T07:22:42;6.60;;;4.60;;
20525;SDS011;10421;49.142;9.232;2022-07-29T07:25:09;5.47;;;4.60;;
20525;SDS011;10421;49.142;9.232;2022-07-29T07:27:39;4.87;;;4.37;;
20525;SDS011;10421;49.142;9.232;2022-07-29T07:30:06;4.80;;;4.40;;
20525;SDS011;10421;49.142;9.232;2022-07-29T07:32:33;5.43;;;4.43;;
20525;SDS011;10421;49.142;9.232;2022-07-29T07:35:01;6.00;;;4.50;;
20525;SDS011;10421;49.142;9.232;2022-07-29T07:37:31;4.63;;;4.23;;
20525;SDS011;10421;49.142;9.232;2022-07-29T07:39:59;5.00;;;4.13;;
20525;SDS011;10421;49.142;9.232;2022-07-29T07:42:26;6.93;;;4.90;;
20525;SDS011;10421;49.142;9.232;2022-07-29T07:44:53;5.20;;;4.70;;
20525;SDS011;10421;49.142;9.232;2022-07-29T07:47:20;4.60;;;4.20;;
20525;SDS011;10421;49.142;9.232;2022-07-29T07:49:48;4.83;;;4.43;;
20525;SDS011;10421;49.142;9.232;2022-07-29T07:52:15;5.70;;;4.40;;
20525;SDS011;10421;49.142;9.232;2022-07-29T07:54:44;4.97;;;4.53;;
20525;SDS011;10421;49.142;9.232;2022-07-29T07:57:11;5.43;;;4.77;;
20525;SDS011;10421;49.142;9.232;2022-07-29T07:59:39;5.10;;;4.60;;
20525;SDS011;10421;49.142;9.232;2022-07-29T08:02:06;5.40;;;4.90;;
20525;SDS011;10421;49.142;9.232;2022-07-29T08:04:33;5.60;;;4.60;;
20525;SDS011;10421;49.142;9.232;2022-07-29T08:07:00;5.13;;;4.70;;
20525;SDS011;10421;49.142;9.232;2022-07-29T08:09:28;5.57;;;5.17;;
20525;SDS011;10421;49.142;9.232;2022-07-29T08:11:57;6.10;;;5.50;;
20525;SDS011;10421;49.142;9.232;2022-07-29T08:14:24;4.80;;;4.30;;
20525;SDS011;10421;49.142;9.232;2022-07-29T08:16:51;5.27;;;4.87;;
20525;SDS011;10421;49.142;9.232;2022-07-29T08:19:17;6.17;;;5.67;;
20525;SDS011;10421;49.142;9.232;2022-07-29T08:21:44;5.83;;;5.30;;
20525;SDS011;10421;49.142;9.232;2022-07-29T08:24:11;5.77;;;5.20;;
20525;SDS011;10421;49.142;9.232;2022-07-29T08:26:56;8.10;;;5.20;;
20525;SDS011;10421;49.142;9.232;2022-07-29T08:29:23;5.90;;;5.30;;
20525;SDS011;10421;49.142;9.232;2022-07-29T08:31:50;5.90;;;5.40;;
20525;SDS011;10421;49.142;9.232;2022-07-29T08:34:17;7.20;;;5.47;;
20525;SDS011;10421;49.142;9.232;2022-07-29T08:36:43;7.27;;;5.37;;
20525;SDS011;10421;49.142;9.232;2022-07-29T08:39:10;5.93;;;5.43;;
20525;SDS011;10421;49.142;9.232;2022-07-29T08:41:37;6.83;;;5.57;;
20525;SDS011;10421;49.142;9.232;2022-07-29T08:44:05;6.60;;;6.00;;
20525;SDS011;10421;49.142;9.232;2022-07-29T08:46:31;7.03;;;6.00;;
20525;SDS011;10421;49.142;9.232;2022-07-29T08:48:59;9.50;;;6.30;;
20525;SDS011;10421;49.142;9.232;2022-07-29T08:51:26;6.87;;;6.17;;
20525;SDS011;10421;49.142;9.232;2022-07-29T08:53:53;6.33;;;5.70;;
20525;SDS011;10421;49.142;9.232;2022-07-29T08:56:21;7.30;;;5.50;;
20525;SDS011;10421;49.142;9.232;2022-07-29T08:58:49;13.03;;;5.23;;
20525;SDS011;10421;49.142;9.232;2022-07-29T09:01:21;6.47;;;5.63;;
20525;SDS011;10421;49.142;9.232;2022-07-29T09:03:48;7.40;;;6.33;;
20525;SDS011;10421;49.142;9.232;2022-07-29T09:06:17;8.60;;;6.17;;
20525;SDS011;10421;49.142;9.232;2022-07-29T09:08:44;6.53;;;5.70;;
20525;SDS011;10421;49.142;9.232;2022-07-29T09:11:11;8.03;;;5.90;;
20525;SDS011;10421;49.142;9.232;2022-07-29T09:13:38;8.37;;;6.10;;
20525;SDS011;10421;49.142;9.232;2022-07-29T09:16:06;6.77;;;6.13;;
20525;SDS011;10421;49.142;9.232;2022-07-29T09:18:34;8.07;;;6.07;;
20525;SDS011;10421;49.142;9.232;2022-07-29T09:21:02;7.87;;;5.93;;
20525;SDS011;10421;49.142;9.232;2022-07-29T09:23:59;11.43;;;7.07;;
20525;SDS011;10421;49.142;9.232;2022-07-29T09:26:27;7.23;;;6.40;;
20525;SDS011;10421;49.142;9.232;2022-07-29T09:28:55;7.30;;;6.60;;
20525;SDS011;10421;49.142;9.232;2022-07-29T09:31:26;7.67;;;6.10;;
20525;SDS011;10421;49.142;9.232;2022-07-29T09:34:00;6.80;;;6.10;;
20525;SDS011;10421;49.142;9.232;2022-07-29T09:36:28;7.00;;;6.30;;
20525;SDS011;10421;49.142;9.232;2022-07-29T09:38:58;7.13;;;6.37;;
20525;SDS011;10421;49.142;9.232;2022-07-29T09:41:25;9.33;;;7.20;;
20525;SDS011;10421;49.142;9.232;2022-07-29T09:43:53;9.80;;;7.17;;
20525;SDS011;10421;49.142;9.232;2022-07-29T09:46:20;11.00;;;7.50;;
20525;SDS011;10421;49.142;9.232;2022-07-29T09:49:00;6.77;;;6.13;;
20525;SDS011;10421;49.142;9.232;2022-07-29T09:51:32;7.73;;;6.40;;
20525;SDS011;10421;49.142;9.232;2022-07-29T09:53:59;9.47;;;6.50;;
20525;SDS011;10421;49.142;9.232;2022-07-29T09:56:38;8.00;;;7.20;;
20525;SDS011;10421;49.142;9.232;2022-07-29T09:59:05;7.97;;;6.33;;
20525;SDS011;10421;49.142;9.232;2022-07-29T10:01:32;8.00;;;6.90;;
20525;SDS011;10421;49.142;9.232;2022-07-29T10:04:01;9.03;;;7.77;;
20525;SDS011;10421;49.142;9.232;2022-07-29T10:06:28;12.70;;;7.77;;
20525;SDS011;10421;49.142;9.232;2022-07-29T10:09:02;6.77;;;5.93;;
20525;SDS011;10421;49.142;9.232;2022-07-29T10:11:33;7.83;;;7.03;;
20525;SDS011;10421;49.142;9.232;2022-07-29T10:14:01;7.50;;;6.80;;
20525;SDS011;10421;49.142;9.232;2022-07-29T10:16:28;9.63;;;7.10;;
20525;SDS011;10421;49.142;9.232;2022-07-29T10:18:57;9.20;;;7.37;;
20525;SDS011;10421;49.142;9.232;2022-07-29T10:21:26;8.33;;;7.23;;
20525;SDS011;10421;49.142;9.232;2022-07-29T10:23:53;9.97;;;7.20;;
20525;SDS011;10421;49.142;9.232;2022-07-29T10:26:20;7.23;;;6.20;;
20525;SDS011;10421;49.142;9.232;2022-07-29T10:28:46;8.40;;;7.27;;
20525;SDS011;10421;49.142;9.232;2022-07-29T10:31:15;7.47;;;6.70;;
20525;SDS011;10421;49.142;9.232;2022-07-29T10:33:51;7.90;;;7.10;;
20525;SDS011;10421;49.142;9.232;2022-07-29T10:36:38;8.60;;;6.80;;
20525;SDS011;10421;49.142;9.232;2022-07-29T10:39:17;7.40;;;6.70;;
20525;SDS011;10421;49.142;9.232;2022-07-29T10:41:56;6.80;;;6.23;;
20525;SDS011;10421;49.142;9.232;2022-07-29T10:44:31;7.20;;;6.00;;
20525;SDS011;10421;49.142;9.232;2022-07-29T10:46:59;6.60;;;6.10;;
20525;SDS011;10421;49.142;9.232;2022-07-29T10:49:26;9.17;;;6.87;;
20525;SDS011;10421;49.142;9.232;2022-07-29T10:51:56;7.67;;;6.90;;
20525;SDS011;10421;49.142;9.232;2022-07-29T10:54:39;10.73;;;6.30;;
20525;SDS011;10421;49.142;9.232;2022-07-29T10:57:15;8.50;;;7.60;;
20525;SDS011;10421;49.142;9.232;2022-07-29T10:59:45;7.90;;;7.10;;
20525;SDS011;10421;49.142;9.232;2022-07-29T11:05:09;8.00;;;7.30;;
20525;SDS011;10421;49.142;9.232;2022-07-29T11:07:38;7.77;;;6.97;;
20525;SDS011;10421;49.142;9.232;2022-07-29T11:12:51;9.03;;;6.90;;
20525;SDS011;10421;49.142;9.232;2022-07-29T11:15:18;7.57;;;6.83;;
20525;SDS011;10421;49.142;9.232;2022-07-29T11:20:33;8.80;;;7.73;;
20525;SDS011;10421;49.142;9.232;2022-07-29T11:23:03;8.30;;;7.10;;
20525;SDS011;10421;49.142;9.232;2022-07-29T11:25:44;7.90;;;7.10;;
20525;SDS011;10421;49.142;9.232;2022-07-29T11:28:12;8.23;;;7.43;;
20525;SDS011;10421;49.142;9.232;2022-07-29T11:30:49;10.67;;;7.20;;
20525;SDS011;10421;49.142;9.232;2022-07-29T11:33:27;8.17;;;7.43;;
20525;SDS011;10421;49.142;9.232;2022-07-29T11:38:39;9.20;;;7.00;;
20525;SDS011;10421;49.142;9.232;2022-07-29T11:41:19;7.73;;;7.13;;
20525;SDS011;10421;49.142;9.232;2022-07-29T11:43:49;9.57;;;7.47;;
20525;SDS011;10421;49.142;9.232;2022-07-29T11:46:17;10.37;;;6.83;;
20525;SDS011;10421;49.142;9.232;2022-07-29T11:48:59;8.03;;;7.00;;
20525;SDS011;10421;49.142;9.232;2022-07-29T11:51:26;9.20;;;7.70;;
20525;SDS011;10421;49.142;9.232;2022-07-29T11:53:54;9.07;;;7.33;;
20525;SDS011;10421;49.142;9.232;2022-07-29T11:56:23;9.60;;;6.67;;
20525;SDS011;10421;49.142;9.232;2022-07-29T11:59:00;7.30;;;6.67;;
20525;SDS011;10421;49.142;9.232;2022-07-29T12:01:31;8.17;;;7.20;;
20525;SDS011;10421;49.142;9.232;2022-07-29T12:04:02;8.03;;;6.97;;
20525;SDS011;10421;49.142;9.232;2022-07-29T12:06:29;8.10;;;7.30;;
20525;SDS011;10421;49.142;9.232;2022-07-29T12:08:58;8.47;;;6.90;;
20525;SDS011;10421;49.142;9.232;2022-07-29T12:11:25;7.23;;;6.47;;
20525;SDS011;10421;49.142;9.232;2022-07-29T12:13:52;7.73;;;6.93;;
20525;SDS011;10421;49.142;9.232;2022-07-29T12:16:19;8.40;;;6.53;;
20525;SDS011;10421;49.142;9.232;2022-07-29T12:18:54;7.33;;;6.63;;
20525;SDS011;10421;49.142;9.232;2022-07-29T12:21:21;7.77;;;6.80;;
20525;SDS011;10421;49.142;9.232;2022-07-29T12:23:51;9.73;;;7.40;;
20525;SDS011;10421;49.142;9.232;2022-07-29T12:26:20;6.67;;;6.17;;
20525;SDS011;10421;49.142;9.232;2022-07-29T12:28:47;6.93;;;6.03;;
20525;SDS011;10421;49.142;9.232;2022-07-29T12:31:14;6.77;;;6.13;;
20525;SDS011;10421;49.142;9.232;2022-07-29T12:33:42;7.20;;;6.50;;
20525;SDS011;10421;49.142;9.232;2022-07-29T12:36:17;8.30;;;6.80;;
20525;SDS011;10421;49.142;9.232;2022-07-29T12:38:44;7.50;;;6.17;;
20525;SDS011;10421;49.142;9.232;2022-07-29T12:41:11;6.67;;;5.97;;
20525;SDS011;10421;49.142;9.232;2022-07-29T12:43:53;6.47;;;5.97;;
20525;SDS011;10421;49.142;9.232;2022-07-29T12:46:20;7.83;;;6.30;;
20525;SDS011;10421;49.142;9.232;2022-07-29T12:48:49;6.83;;;6.13;;
20525;SDS011;10421;49.142;9.232;2022-07-29T12:51:25;7.77;;;5.90;;
20525;SDS011;10421;49.142;9.232;2022-07-29T12:54:08;6.30;;;5.70;;
20525;SDS011;10421;49.142;9.232;2022-07-29T12:56:38;6.23;;;5.73;;
20525;SDS011;10421;49.142;9.232;2022-07-29T12:59:14;7.37;;;6.17;;
20525;SDS011;10421;49.142;9.232;2022-07-29T13:01:42;6.53;;;5.80;;
20525;SDS011;10421;49.142;9.232;2022-07-29T13:04:09;6.73;;;6.03;;
20525;SDS011;10421;49.142;9.232;2022-07-29T13:06:37;7.80;;;5.93;;
20525;SDS011;10421;49.142;9.232;2022-07-29T13:09:06;5.97;;;5.40;;
20525;SDS011;10421;49.142;9.232;2022-07-29T13:11:38;7.20;;;6.10;;
20525;SDS011;10421;49.142;9.232;2022-07-29T13:14:07;6.00;;;5.50;;
20525;SDS011;10421;49.142;9.232;2022-07-29T13:16:37;7.13;;;6.43;;
20525;SDS011;10421;49.142;9.232;2022-07-29T13:19:33;6.60;;;5.97;;
20525;SDS011;10421;49.142;9.232;2022-07-29T13:22:01;5.93;;;5.40;;
20525;SDS011;10421;49.142;9.232;2022-07-29T13:24:28;7.40;;;6.30;;
20525;SDS011;10421;49.142;9.232;2022-07-29T13:26:55;8.00;;;5.77;;
20525;SDS011;10421;49.142;9.232;2022-07-29T13:29:22;5.63;;;5.13;;
20525;SDS011;10421;49.142;9.232;2022-07-29T13:31:49;7.07;;;6.27;;
20525;SDS011;10421;49.142;9.232;2022-07-29T13:34:17;6.90;;;6.20;;
20525;SDS011;10421;49.142;9.232;2022-07-29T13:36:44;6.17;;;5.50;;
20525;SDS011;10421;49.142;9.232;2022-07-29T13:39:11;5.73;;;5.23;;
20525;SDS011;10421;49.142;9.232;2022-07-29T13:41:38;6.17;;;5.57;;
20525;SDS011;10421;49.142;9.232;2022-07-29T13:44:05;6.03;;;5.53;;
20525;SDS011;10421;49.142;9.232;2022-07-29T13:46:31;6.00;;;5.10;;
20525;SDS011;10421;49.142;9.232;2022-07-29T13:48:58;6.27;;;5.60;;
20525;SDS011;10421;49.142;9.232;2022-07-29T13:51:26;6.20;;;5.70;;
20525;SDS011;10421;49.142;9.232;2022-07-29T13:53:53;6.40;;;5.80;;
20525;SDS011;10421;49.142;9.232;2022-07-29T13:56:19;6.70;;;5.57;;
20525;SDS011;10421;49.142;9.232;2022-07-29T13:58:46;8.40;;;5.50;;
20525;SDS011;10421;49.142;9.232;2022-07-29T14:01:13;5.80;;;5.30;;
20525;SDS011;10421;49.142;9.232;2022-07-29T14:03:40;6.53;;;5.60;;
20525;SDS011;10421;49.142;9.232;2022-07-29T14:06:08;5.87;;;5.37;;
20525;SDS011;10421;49.142;9.232;2022-07-29T14:08:36;8.57;;;5.60;;
20525;SDS011;10421;49.142;9.232;2022-07-29T14:11:03;8.00;;;5.37;;
20525;SDS011;10421;49.142;9.232;2022-07-29T14:13:30;5.03;;;4.63;;
20525;SDS011;10421;49.142;9.232;2022-07-29T14:15:57;7.43;;;5.90;;
20525;SDS011;10421;49.142;9.232;2022-07-29T14:18:24;7.90;;;5.73;;
20525;SDS011;10421;49.142;9.232;2022-07-29T14:20:50;5.33;;;4.73;;
20525;SDS011;10421;49.142;9.232;2022-07-29T14:23:17;5.90;;;5.40;;
20525;SDS011;10421;49.142;9.232;2022-07-29T14:25:45;7.23;;;5.83;;
20525;SDS011;10421;49.142;9.232;2022-07-29T14:28:12;6.13;;;5.30;;
20525;SDS011;10421;49.142;9.232;2022-07-29T14:30:39;7.03;;;6.33;;
20525;SDS011;10421;49.142;9.232;2022-07-29T14:33:05;6.63;;;5.43;;
20525;SDS011;10421;49.142;9.232;2022-07-29T14:35:33;7.57;;;5.80;;
20525;SDS011;10421;49.142;9.232;2022-07-29T14:37:59;8.80;;;5.97;;
20525;SDS011;10421;49.142;9.232;2022-07-29T14:40:26;7.77;;;5.30;;
20525;SDS011;10421;49.142;9.232;2022-07-29T14:42:54;6.07;;;5.50;;
20525;SDS011;10421;49.142;9.232;2022-07-29T14:45:21;9.20;;;6.40;;
20525;SDS011;10421;49.142;9.232;2022-07-29T14:47:48;6.53;;;5.83;;
20525;SDS011;10421;49.142;9.232;2022-07-29T14:50:15;6.80;;;5.20;;
20525;SDS011;10421;49.142;9.232;2022-07-29T14:52:43;7.10;;;6.37;;
20525;SDS011;10421;49.142;9.232;2022-07-29T14:55:10;6.37;;;5.80;;
20525;SDS011;10421;49.142;9.232;2022-07-29T14:57:36;7.57;;;5.83;;
20525;SDS011;10421;49.142;9.232;2022-07-29T15:00:05;8.03;;;5.77;;
20525;SDS011;10421;49.142;9.232;2022-07-29T15:02:33;10.53;;;6.03;;
20525;SDS011;10421;49.142;9.232;2022-07-29T15:04:59;6.70;;;6.00;;
20525;SDS011;10421;49.142;9.232;2022-07-29T15:07:26;6.30;;;5.60;;
20525;SDS011;10421;49.142;9.232;2022-07-29T15:09:53;7.10;;;5.40;;
20525;SDS011;10421;49.142;9.232;2022-07-29T15:12:20;6.13;;;5.53;;
20525;SDS011;10421;49.142;9.232;2022-07-29T15:14:47;5.17;;;4.77;;